Time;durP1;ratioP1;P1;durP2;ratioP2;P2;SDS_P1;SDS_P2;PMS_P1;PMS_P2;Temp;Humidity;BMP_temperature;BMP_pressure;BME280_temperature;BME280_humidity;BME280_pressure;Samples;Min_cycle;Max_cycle;Signal;HPM_P1;HPM_P2
2022/04/02 00:01:24;;;;;;;63.65;42.65;;;27.40;99.90;;;;;;5055949;28;20105;-63
2022/04/02 00:03:51;;;;;;;60.88;40.95;;;27.40;99.90;;;;;;5056305;28;20029;-62
2022/04/02 00:06:18;;;;;;;56.75;42.15;;;27.40;99.90;;;;;;5052494;28;20096;-63
2022/04/02 00:08:45;;;;;;;76.78;50.22;;;27.50;99.90;;;;;;5044729;28;20022;-63
2022/04/02 00:11:12;;;;;;;82.03;56.50;;;27.50;99.90;;;;;;5039495;28;20115;-63
2022/04/02 00:13:38;;;;;;;89.65;58.80;;;27.50;99.90;;;;;;5055693;28;20494;-65
2022/04/02 00:16:05;;;;;;;100.10;66.57;;;27.60;99.90;;;;;;5055742;28;20538;-63
2022/04/02 00:18:32;;;;;;;96.70;63.15;;;27.60;99.90;;;;;;5055813;28;20049;-66
2022/04/02 00:20:59;;;;;;;93.18;53.53;;;27.70;99.90;;;;;;5055428;28;20029;-64
2022/04/02 00:23:39;;;;;;;76.88;47.10;;;27.70;99.90;;;;;;5055963;28;20029;-65
2022/04/02 00:26:09;;;;;;;69.28;43.75;;;27.80;99.90;;;;;;5055961;28;20032;-64
2022/04/02 00:28:38;;;;;;;63.42;43.05;;;27.90;99.90;;;;;;5055510;28;20464;-63
2022/04/02 00:31:07;;;;;;;72.95;47.97;;;27.80;99.90;;;;;;5055206;28;20025;-65
2022/04/02 00:33:35;;;;;;;81.43;54.65;;;27.80;99.90;;;;;;5055443;28;20499;-66
2022/04/02 00:36:02;;;;;;;113.85;74.20;;;27.90;99.90;;;;;;5055299;28;20036;-62
2022/04/02 00:38:29;;;;;;;90.63;60.72;;;27.90;99.90;;;;;;5055027;28;20021;-62
2022/04/02 00:40:56;;;;;;;77.00;51.08;;;27.90;99.90;;;;;;5049217;28;20034;-64
2022/04/02 00:43:25;;;;;;;62.28;41.83;;;28.00;99.90;;;;;;5049038;28;20017;-62
2022/04/02 00:45:53;;;;;;;73.22;42.00;;;28.10;99.90;;;;;;5035925;28;20021;-62
2022/04/02 00:48:21;;;;;;;62.15;38.03;;;28.20;99.90;;;;;;5035226;28;20053;-62
2022/04/02 00:50:52;;;;;;;70.15;43.83;;;28.30;99.90;;;;;;5047093;28;20052;-61
2022/04/02 00:53:20;;;;;;;81.15;48.92;;;28.40;99.90;;;;;;5055229;28;20475;-62
2022/04/02 00:55:47;;;;;;;71.70;47.40;;;28.50;99.90;;;;;;5055320;28;20029;-63
2022/04/02 00:58:15;;;;;;;69.93;45.50;;;28.60;99.90;;;;;;5055276;28;20024;-63
2022/04/02 01:00:41;;;;;;;64.72;40.83;;;28.70;99.90;;;;;;5054887;28;20100;-63
2022/04/02 01:03:11;;;;;;;57.83;39.50;;;28.70;99.90;;;;;;5055177;28;20029;-63
2022/04/02 01:05:39;;;;;;;52.70;35.28;;;28.80;99.90;;;;;;5035669;28;20035;-63
2022/04/02 01:08:06;;;;;;;54.35;31.88;;;28.90;99.90;;;;;;5054353;28;20032;-65
2022/04/02 01:10:36;;;;;;;44.22;31.83;;;29.00;99.90;;;;;;5053778;28;20029;-65
2022/04/02 01:13:03;;;;;;;77.30;38.50;;;29.00;99.90;;;;;;5053717;28;20402;-63
2022/04/02 01:15:30;;;;;;;184.60;46.78;;;29.00;99.90;;;;;;5053300;28;20388;-63
2022/04/02 01:17:57;;;;;;;93.43;61.15;;;29.10;99.90;;;;;;5053394;28;20027;-63
2022/04/02 01:20:27;;;;;;;79.07;53.13;;;29.10;99.90;;;;;;5053759;28;20061;-63
2022/04/02 01:22:54;;;;;;;88.95;62.75;;;29.20;99.90;;;;;;5053724;28;20029;-64
2022/04/02 01:25:21;;;;;;;90.75;57.08;;;29.10;99.90;;;;;;5051038;28;20395;-63
2022/04/02 01:27:47;;;;;;;59.90;40.58;;;29.20;99.90;;;;;;5039251;28;20033;-64
2022/04/02 01:30:15;;;;;;;56.25;36.25;;;29.30;99.90;;;;;;5033838;28;20044;-63
2022/04/02 01:32:43;;;;;;;57.63;37.72;;;29.40;99.90;;;;;;5053344;28;20032;-63
2022/04/02 01:35:12;;;;;;;50.45;38.25;;;29.40;99.90;;;;;;5054007;28;20475;-64
2022/04/02 01:37:39;;;;;;;58.42;34.45;;;29.50;99.90;;;;;;5053361;28;20036;-65
2022/04/02 01:40:07;;;;;;;37.13;26.45;;;29.60;99.90;;;;;;5053418;28;20033;-66
2022/04/02 01:42:34;;;;;;;37.10;28.75;;;29.70;99.90;;;;;;5057455;28;20025;-64
2022/04/02 01:45:01;;;;;;;39.70;31.08;;;29.80;99.90;;;;;;5057502;28;20028;-66
2022/04/02 01:47:28;;;;;;;49.55;31.98;;;29.80;99.90;;;;;;5057332;28;20060;-64
2022/04/02 01:49:54;;;;;;;38.20;28.60;;;29.80;99.90;;;;;;5057823;28;20025;-64
2022/04/02 01:52:21;;;;;;;47.40;31.05;;;29.80;99.90;;;;;;5057333;28;20021;-64
2022/04/02 01:54:49;;;;;;;47.85;32.80;;;30.00;99.90;;;;;;5054346;28;20063;-64
2022/04/02 01:57:17;;;;;;;47.90;35.08;;;30.00;99.90;;;;;;5057219;28;20020;-65
2022/04/02 01:59:47;;;;;;;50.58;34.90;;;30.10;99.90;;;;;;5057271;28;20021;-64
2022/04/02 02:02:14;;;;;;;43.00;32.13;;;30.10;99.90;;;;;;5056478;28;20631;-65
2022/04/02 02:04:44;;;;;;;45.88;36.53;;;30.30;99.90;;;;;;5056915;28;20025;-68
2022/04/02 02:07:13;;;;;;;54.70;40.95;;;30.30;99.90;;;;;;5054261;28;20455;-68
2022/04/02 02:09:40;;;;;;;50.88;33.95;;;30.30;99.90;;;;;;5054831;28;20021;-68
2022/04/02 02:12:07;;;;;;;48.00;34.50;;;30.30;99.90;;;;;;5055484;28;20467;-67
2022/04/02 02:14:34;;;;;;;46.38;34.22;;;30.40;99.90;;;;;;5056568;28;20044;-67
2022/04/02 02:17:01;;;;;;;40.72;31.67;;;30.60;99.90;;;;;;5056343;28;20024;-68
2022/04/02 02:19:27;;;;;;;60.05;46.25;;;30.60;99.90;;;;;;5053494;28;20550;-67
2022/04/02 02:21:54;;;;;;;54.05;37.92;;;30.60;99.90;;;;;;5056202;28;20033;-69
2022/04/02 02:24:21;;;;;;;52.05;36.15;;;30.60;99.90;;;;;;5056492;28;20064;-68
2022/04/02 02:26:47;;;;;;;46.25;32.03;;;30.70;99.90;;;;;;5053525;28;20167;-67
2022/04/02 02:29:14;;;;;;;102.75;68.20;;;30.80;99.90;;;;;;5053653;28;20029;-69
2022/04/02 02:31:41;;;;;;;137.10;80.85;;;30.80;99.90;;;;;;5051922;28;20024;-68
2022/04/02 02:36:54;;;;;;;65.03;48.22;;;31.20;99.90;;;;;;5052415;28;20598;-69
2022/04/02 02:39:21;;;;;;;69.13;47.47;;;31.20;99.90;;;;;;5056188;28;20044;-69
2022/04/02 02:41:48;;;;;;;54.80;41.38;;;31.30;99.90;;;;;;5053994;28;20017;-68
2022/04/02 02:44:15;;;;;;;103.25;72.90;;;31.30;99.90;;;;;;5056546;28;20040;-68
2022/04/02 02:46:41;;;;;;;58.78;44.83;;;31.40;99.90;;;;;;5056522;28;20013;-67
2022/04/02 02:49:08;;;;;;;49.38;39.92;;;31.50;99.90;;;;;;5054970;28;20112;-67
2022/04/02 02:51:35;;;;;;;42.50;34.35;;;31.50;99.90;;;;;;5055515;28;20028;-68
2022/04/02 02:54:01;;;;;;;42.03;33.33;;;31.50;99.10;;;;;;5055158;28;20139;-68
2022/04/02 02:56:28;;;;;;;54.10;39.67;;;31.60;98.90;;;;;;5055640;28;20028;-65
2022/04/02 02:58:55;;;;;;;40.60;31.77;;;31.70;99.40;;;;;;5055665;28;20037;-69
2022/04/02 03:01:21;;;;;;;39.40;31.90;;;31.80;98.90;;;;;;5055106;28;20464;-68
2022/04/02 03:03:48;;;;;;;40.03;31.30;;;31.80;98.80;;;;;;5055618;28;20021;-68
2022/04/02 03:06:15;;;;;;;44.45;37.28;;;31.80;98.00;;;;;;5055415;28;20479;-68
2022/04/02 03:08:42;;;;;;;49.47;41.13;;;31.90;97.30;;;;;;5054852;28;20053;-68
2022/04/02 03:11:08;;;;;;;66.45;47.85;;;32.00;97.00;;;;;;5052846;28;20029;-70
2022/04/02 03:13:39;;;;;;;49.45;39.92;;;32.00;96.30;;;;;;5055019;28;20116;-68
2022/04/02 03:16:07;;;;;;;54.40;42.90;;;31.90;96.10;;;;;;5054744;28;20033;-67
2022/04/02 03:18:34;;;;;;;53.85;41.08;;;31.90;96.20;;;;;;5055858;28;20368;-67
2022/04/02 03:21:01;;;;;;;35.90;29.23;;;31.90;96.70;;;;;;5055639;28;20460;-67
2022/04/02 03:23:27;;;;;;;37.15;29.15;;;31.90;95.50;;;;;;5053011;28;20025;-68
2022/04/02 03:25:55;;;;;;;45.03;36.33;;;31.80;96.10;;;;;;5052964;28;20099;-68
2022/04/02 03:28:22;;;;;;;35.78;28.90;;;31.90;95.70;;;;;;5053432;28;20059;-68
2022/04/02 03:30:48;;;;;;;37.92;33.17;;;32.10;95.30;;;;;;5054158;28;20024;-68
2022/04/02 03:33:15;;;;;;;41.42;32.03;;;32.20;95.30;;;;;;5053936;28;20056;-68
2022/04/02 03:35:43;;;;;;;43.05;31.55;;;32.20;95.30;;;;;;5054474;28;20033;-69
2022/04/02 03:38:09;;;;;;;36.92;29.55;;;32.40;94.70;;;;;;5053632;28;20025;-68
2022/04/02 03:40:36;;;;;;;35.72;30.25;;;32.40;95.20;;;;;;5054506;28;20329;-69
2022/04/02 03:43:04;;;;;;;39.55;32.60;;;32.50;94.90;;;;;;5054241;28;20037;-68
2022/04/02 03:45:31;;;;;;;45.83;36.22;;;32.40;93.90;;;;;;5054684;28;20029;-69
2022/04/02 03:47:57;;;;;;;42.63;34.60;;;32.40;94.30;;;;;;5054506;28;20024;-70
2022/04/02 03:50:24;;;;;;;45.00;37.97;;;32.40;94.00;;;;;;5054485;28;20102;-68
2022/04/02 03:52:51;;;;;;;46.10;39.78;;;32.40;92.70;;;;;;5053371;28;20044;-67
2022/04/02 03:55:18;;;;;;;37.92;30.50;;;32.60;93.80;;;;;;5056232;28;20078;-69
2022/04/02 03:57:47;;;;;;;38.22;29.85;;;32.60;93.60;;;;;;5055322;28;20029;-67
2022/04/02 04:00:15;;;;;;;38.50;30.67;;;32.80;93.20;;;;;;5055973;28;20492;-69
2022/04/02 04:02:41;;;;;;;96.85;74.50;;;32.70;92.20;;;;;;5053870;28;20036;-71
2022/04/02 04:05:08;;;;;;;102.47;75.18;;;32.80;93.00;;;;;;5054003;28;20063;-67
2022/04/02 04:07:36;;;;;;;46.97;35.38;;;32.80;92.60;;;;;;5054265;28;20065;-71
2022/04/02 04:10:04;;;;;;;41.97;33.65;;;32.90;91.70;;;;;;5053324;28;20027;-70
2022/04/02 04:12:32;;;;;;;73.72;58.92;;;33.10;91.30;;;;;;5053804;28;20075;-70
2022/04/02 04:14:58;;;;;;;38.72;31.83;;;33.20;91.90;;;;;;5053161;28;20506;-71
2022/04/02 04:17:25;;;;;;;32.78;27.65;;;33.10;91.50;;;;;;5052214;28;20096;-69
2022/04/02 04:19:52;;;;;;;34.50;28.33;;;33.20;91.20;;;;;;5054070;28;20021;-69
2022/04/02 04:22:21;;;;;;;37.88;28.90;;;33.20;91.70;;;;;;5053955;28;20418;-70
2022/04/02 04:24:48;;;;;;;31.67;25.77;;;33.30;91.80;;;;;;5052849;28;20077;-71
2022/04/02 04:27:15;;;;;;;33.72;24.05;;;33.30;91.60;;;;;;5054022;28;20017;-69
2022/04/02 04:29:41;;;;;;;31.38;24.52;;;33.50;91.00;;;;;;5053785;28;20017;-65
2022/04/02 04:32:09;;;;;;;34.25;27.42;;;33.50;89.50;;;;;;5053518;28;20023;-71
2022/04/02 04:34:35;;;;;;;35.08;26.02;;;33.40;90.10;;;;;;5051941;28;20155;-68
2022/04/02 04:37:02;;;;;;;35.17;25.88;;;33.30;89.70;;;;;;5054039;28;20059;-66
2022/04/02 04:39:29;;;;;;;49.60;31.23;;;33.20;89.70;;;;;;5053890;28;20104;-66
2022/04/02 04:41:55;;;;;;;37.58;28.40;;;33.40;90.00;;;;;;5054072;28;20411;-67
2022/04/02 04:44:22;;;;;;;35.40;27.88;;;33.50;90.20;;;;;;5053900;28;20476;-66
2022/04/02 04:46:49;;;;;;;33.92;25.60;;;33.60;89.00;;;;;;5047066;28;20033;-69
2022/04/02 04:49:15;;;;;;;52.20;41.40;;;33.60;88.60;;;;;;5051838;28;20601;-69
2022/04/02 04:51:42;;;;;;;78.57;56.65;;;33.70;89.10;;;;;;5051352;28;20028;-68
2022/04/02 04:54:12;;;;;;;51.88;35.90;;;33.90;89.10;;;;;;5054692;28;20033;-68
2022/04/02 04:56:38;;;;;;;38.20;28.73;;;34.00;88.60;;;;;;5051753;28;20538;-69
2022/04/02 04:59:05;;;;;;;40.25;25.10;;;34.00;87.50;;;;;;5053378;28;20459;-68
2022/04/02 05:01:32;;;;;;;30.23;23.27;;;34.00;86.40;;;;;;5053901;28;20074;-71
2022/04/02 05:04:01;;;;;;;27.08;21.02;;;34.10;85.20;;;;;;5051349;28;20021;-68
2022/04/02 05:06:30;;;;;;;31.73;22.83;;;34.10;84.80;;;;;;5054160;28;20479;-68
2022/04/02 05:08:57;;;;;;;31.65;21.17;;;34.10;84.90;;;;;;5053690;28;20111;-65
2022/04/02 05:11:23;;;;;;;25.58;20.75;;;34.40;84.30;;;;;;5051182;28;20550;-68
2022/04/02 05:13:50;;;;;;;29.85;21.83;;;34.40;84.00;;;;;;5053441;28;20041;-68
2022/04/02 05:16:17;;;;;;;32.83;22.67;;;34.40;81.60;;;;;;5051449;28;20032;-66
2022/04/02 05:18:44;;;;;;;27.25;22.30;;;34.50;83.30;;;;;;5053522;28;20021;-66
2022/04/02 05:21:13;;;;;;;27.15;23.17;;;34.50;82.20;;;;;;5053934;28;20021;-65
2022/04/02 05:23:40;;;;;;;30.90;23.60;;;34.50;81.30;;;;;;5053013;28;20021;-66
2022/04/02 05:26:06;;;;;;;32.38;24.00;;;34.30;82.10;;;;;;5053808;28;20013;-65
2022/04/02 05:28:33;;;;;;;31.35;22.90;;;34.30;81.70;;;;;;5053173;28;20021;-65
2022/04/02 05:31:00;;;;;;;32.33;24.55;;;34.40;81.60;;;;;;5052565;28;20048;-65
2022/04/02 05:33:27;;;;;;;33.20;25.70;;;34.30;81.90;;;;;;5052944;28;20059;-66
2022/04/02 05:35:58;;;;;;;35.55;27.23;;;34.30;83.00;;;;;;5053425;28;20556;-67
2022/04/02 05:38:24;;;;;;;32.80;26.00;;;34.30;81.80;;;;;;5053078;28;20438;-66
2022/04/02 05:40:51;;;;;;;34.65;25.75;;;34.30;80.20;;;;;;5053668;28;20070;-68
2022/04/02 05:43:18;;;;;;;35.40;26.95;;;34.20;81.80;;;;;;5052980;28;20025;-64
2022/04/02 05:45:46;;;;;;;32.05;26.33;;;34.10;82.00;;;;;;5052995;28;20029;-66
2022/04/02 05:48:14;;;;;;;35.15;23.98;;;34.00;82.20;;;;;;5053202;28;20032;-66
2022/04/02 05:50:42;;;;;;;27.05;23.40;;;34.00;83.00;;;;;;5052522;28;20053;-65
2022/04/02 05:53:08;;;;;;;30.55;23.52;;;34.00;82.50;;;;;;5052061;28;20027;-65
2022/04/02 05:55:35;;;;;;;37.65;30.35;;;34.10;83.70;;;;;;5050740;28;20501;-66
2022/04/02 05:58:05;;;;;;;38.25;31.33;;;34.20;80.10;;;;;;5050741;28;20071;-66
2022/04/02 06:00:32;;;;;;;38.28;31.10;;;34.30;79.90;;;;;;5050392;28;20379;-64
2022/04/02 06:02:59;;;;;;;38.22;27.35;;;34.20;77.40;;;;;;5050895;28;20090;-66
2022/04/02 06:05:28;;;;;;;35.60;27.77;;;34.30;79.40;;;;;;5050972;28;20032;-66
2022/04/02 06:07:55;;;;;;;28.70;22.60;;;34.40;81.40;;;;;;5051917;28;20392;-66
2022/04/02 06:10:21;;;;;;;36.45;28.58;;;34.40;81.10;;;;;;5052528;28;20479;-66
2022/04/02 06:12:50;;;;;;;38.47;27.85;;;34.30;80.30;;;;;;5051062;28;20036;-66
2022/04/02 06:15:17;;;;;;;34.88;26.38;;;34.50;80.80;;;;;;5051840;28;20021;-69
2022/04/02 06:17:44;;;;;;;32.00;26.38;;;34.70;79.50;;;;;;5052627;28;20300;-66
2022/04/02 06:20:11;;;;;;;35.28;26.55;;;34.80;80.00;;;;;;5052809;28;20438;-67
2022/04/02 06:22:37;;;;;;;30.48;25.63;;;34.80;78.90;;;;;;5049992;28;20016;-66
2022/04/02 06:25:07;;;;;;;28.88;23.80;;;34.90;79.00;;;;;;5052399;28;20064;-68
2022/04/02 06:27:41;;;;;;;37.60;30.25;;;34.80;78.90;;;;;;5053436;28;20029;-64
2022/04/02 06:30:09;;;;;;;42.30;33.50;;;34.80;78.40;;;;;;5055974;28;20025;-64
2022/04/02 06:32:36;;;;;;;43.15;31.40;;;34.80;79.20;;;;;;5055184;28;20082;-66
2022/04/02 06:35:03;;;;;;;33.90;27.33;;;34.80;79.50;;;;;;5054479;28;20045;-65
2022/04/02 06:37:41;;;;;;;34.88;26.85;;;34.70;78.90;;;;;;5056334;28;20017;-64
2022/04/02 06:40:10;;;;;;;30.92;24.85;;;34.70;78.30;;;;;;5053259;28;20021;-65
2022/04/02 06:42:37;;;;;;;52.92;40.30;;;34.60;78.00;;;;;;5055505;28;20053;-66
2022/04/02 06:45:05;;;;;;;29.45;23.95;;;34.50;77.50;;;;;;5052390;28;20032;-66
2022/04/02 06:47:33;;;;;;;24.10;21.15;;;34.50;77.20;;;;;;5056151;28;20075;-65
2022/04/02 06:50:05;;;;;;;76.55;65.53;;;34.50;77.20;;;;;;5055751;28;20017;-64
2022/04/02 06:52:33;;;;;;;94.57;77.97;;;34.50;76.80;;;;;;5053735;28;20059;-64
2022/04/02 06:55:00;;;;;;;29.40;25.45;;;34.40;77.10;;;;;;5055676;28;20116;-66
2022/04/02 06:57:28;;;;;;;35.88;32.00;;;34.40;76.20;;;;;;5056570;28;20033;-66
2022/04/02 06:59:56;;;;;;;30.38;26.73;;;34.30;76.90;;;;;;5056603;28;20029;-65
2022/04/02 07:02:22;;;;;;;27.88;21.55;;;34.40;78.20;;;;;;5055838;28;20091;-66
2022/04/02 07:04:49;;;;;;;30.67;23.45;;;34.50;77.00;;;;;;5056050;28;20029;-69
2022/04/02 07:07:16;;;;;;;29.63;23.10;;;34.50;76.20;;;;;;5055688;28;20082;-71
2022/04/02 07:09:43;;;;;;;29.33;23.48;;;34.60;76.10;;;;;;5056379;28;20032;-68
2022/04/02 07:12:09;;;;;;;36.20;26.80;;;34.80;74.00;;;;;;5052972;28;20042;-69
2022/04/02 07:14:36;;;;;;;32.97;25.05;;;34.60;75.70;;;;;;5055478;28;20025;-66
2022/04/02 07:17:03;;;;;;;51.20;39.53;;;34.60;75.80;;;;;;5055355;28;20017;-70
2022/04/02 07:19:32;;;;;;;30.90;24.35;;;34.60;75.80;;;;;;5055728;28;20079;-67
2022/04/02 07:22:01;;;;;;;34.63;25.45;;;34.60;75.30;;;;;;5056198;28;20021;-67
2022/04/02 07:24:27;;;;;;;39.97;28.83;;;34.60;76.10;;;;;;5056195;28;20017;-68
2022/04/02 07:26:56;;;;;;;35.47;25.00;;;34.80;77.40;;;;;;5056740;28;20039;-70
2022/04/02 07:29:26;;;;;;;31.63;24.85;;;34.90;75.50;;;;;;5048282;28;20028;-69
2022/04/02 07:31:53;;;;;;;36.58;24.38;;;35.10;75.20;;;;;;5051173;28;20025;-69
2022/04/02 07:34:20;;;;;;;33.22;26.40;;;35.00;74.40;;;;;;5043728;28;20099;-69
2022/04/02 07:37:09;;;;;;;28.55;22.20;;;35.00;75.70;;;;;;5055134;28;20064;-68
2022/04/02 07:39:55;;;;;;;29.50;23.50;;;34.90;75.60;;;;;;5054107;28;20051;-69
2022/04/02 07:42:26;;;;;;;37.08;29.58;;;34.80;72.70;;;;;;5049797;28;20488;-67
2022/04/02 07:45:11;;;;;;;67.10;51.78;;;34.70;73.50;;;;;;5055622;28;20032;-67
2022/04/02 07:47:41;;;;;;;38.28;29.48;;;34.60;74.50;;;;;;5054442;28;20020;-68
2022/04/02 07:50:11;;;;;;;53.38;42.60;;;34.90;75.10;;;;;;5054937;28;20029;-68
2022/04/02 07:52:38;;;;;;;40.53;31.65;;;35.00;74.50;;;;;;5054829;28;20380;-70
2022/04/02 07:55:08;;;;;;;30.23;23.75;;;35.00;74.90;;;;;;5055189;28;20066;-68
2022/04/02 07:57:57;;;;;;;38.33;29.35;;;35.10;72.80;;;;;;5053807;28;20021;-69
2022/04/02 08:00:26;;;;;;;29.17;22.98;;;35.20;74.30;;;;;;5052598;28;20037;-69
2022/04/02 08:02:52;;;;;;;29.23;24.70;;;35.20;73.70;;;;;;5054935;28;20296;-68
2022/04/02 08:05:21;;;;;;;32.35;23.85;;;35.30;72.50;;;;;;5053432;28;20027;-69
2022/04/02 08:07:54;;;;;;;27.20;22.38;;;35.30;71.50;;;;;;5054895;28;20021;-71
2022/04/02 08:10:25;;;;;;;30.05;21.30;;;35.40;72.30;;;;;;5052341;28;20108;-68
2022/04/02 08:12:55;;;;;;;31.02;24.10;;;35.50;72.10;;;;;;5052936;28;20117;-68
2022/04/02 08:15:24;;;;;;;40.80;34.00;;;35.60;70.90;;;;;;5051666;28;20021;-70
2022/04/02 08:17:54;;;;;;;30.45;24.20;;;35.50;72.00;;;;;;5054098;28;20013;-69
2022/04/02 08:20:23;;;;;;;32.15;22.55;;;35.60;71.20;;;;;;5054449;28;20430;-68
2022/04/02 08:22:51;;;;;;;27.77;22.40;;;35.60;69.70;;;;;;5051605;28;20101;-69
2022/04/02 08:25:18;;;;;;;26.75;23.35;;;35.70;69.70;;;;;;5054557;28;20460;-69
2022/04/02 08:27:47;;;;;;;24.02;21.30;;;35.60;70.30;;;;;;5054181;28;20269;-67
2022/04/02 08:30:17;;;;;;;27.25;21.65;;;35.60;70.10;;;;;;5052945;28;20111;-70
2022/04/02 08:32:46;;;;;;;26.20;21.10;;;35.50;71.20;;;;;;5053652;28;20086;-69
2022/04/02 08:35:18;;;;;;;31.20;23.45;;;35.40;70.90;;;;;;5053414;28;20415;-68
2022/04/02 08:37:54;;;;;;;31.95;24.63;;;35.50;72.50;;;;;;5053274;28;20025;-70
2022/04/02 08:40:37;;;;;;;35.95;20.63;;;35.50;77.70;;;;;;5051498;28;20029;-68
2022/04/02 08:43:40;;;;;;;31.40;21.55;;;35.40;79.30;;;;;;5053285;28;20025;-69
2022/04/02 08:46:24;;;;;;;30.75;20.40;;;35.30;80.60;;;;;;5052286;28;20498;-71
2022/04/02 08:49:09;;;;;;;28.50;18.17;;;35.20;81.40;;;;;;5052888;28;20132;-68
2022/04/02 08:51:46;;;;;;;22.58;17.48;;;35.20;81.20;;;;;;5053474;28;20032;-68
2022/04/02 08:54:24;;;;;;;26.15;17.55;;;35.20;81.40;;;;;;5052330;28;20017;-69
2022/04/02 08:57:00;;;;;;;26.67;19.25;;;34.90;79.40;;;;;;5050305;28;20112;-69
2022/04/02 08:59:36;;;;;;;18.67;15.90;;;34.80;80.40;;;;;;5053656;28;20025;-69
2022/04/02 09:02:20;;;;;;;22.10;16.50;;;34.80;79.60;;;;;;5051465;28;20074;-69
2022/04/02 09:05:23;;;;;;;22.05;16.00;;;34.80;80.20;;;;;;5052353;28;20430;-71
2022/04/02 09:08:00;;;;;;;20.65;16.25;;;34.80;80.00;;;;;;5052946;28;20475;-70
2022/04/02 09:10:46;;;;;;;20.20;15.65;;;34.70;80.10;;;;;;5051557;28;20040;-67
2022/04/02 09:13:32;;;;;;;25.88;17.55;;;34.70;80.30;;;;;;5052746;28;20391;-67
2022/04/02 09:16:04;;;;;;;20.65;16.20;;;34.60;79.70;;;;;;5051794;28;20032;-68
2022/04/02 09:18:59;;;;;;;22.88;16.48;;;34.60;79.70;;;;;;5050923;28;20399;-69
2022/04/02 09:21:30;;;;;;;21.65;16.23;;;34.50;80.00;;;;;;5052774;28;20096;-71
2022/04/02 09:24:00;;;;;;;25.38;17.60;;;34.40;79.70;;;;;;5052980;28;20067;-69
2022/04/02 09:27:06;;;;;;;25.73;16.65;;;34.40;79.10;;;;;;5050179;28;20217;-67
2022/04/02 09:30:11;;;;;;;24.02;15.75;;;34.30;79.10;;;;;;5049569;28;20386;-67
2022/04/02 09:32:59;;;;;;;28.92;19.00;;;34.20;79.30;;;;;;5037937;28;20087;-69
2022/04/02 09:35:40;;;;;;;23.33;17.58;;;34.30;80.60;;;;;;5049238;28;20476;-68
2022/04/02 09:38:47;;;;;;;20.23;16.58;;;34.20;80.00;;;;;;5052611;28;20017;-67
2022/04/02 09:41:44;;;;;;;41.83;26.73;;;34.20;80.40;;;;;;5050581;28;20029;-65
2022/04/02 09:44:50;;;;;;;28.27;20.23;;;34.20;81.00;;;;;;5048479;28;20020;-65
2022/04/02 09:47:28;;;;;;;27.25;18.33;;;34.20;81.20;;;;;;5050615;28;20111;-65
2022/04/02 09:50:14;;;;;;;32.90;22.55;;;34.30;80.80;;;;;;5050693;28;20450;-68
2022/04/02 09:53:09;;;;;;;29.25;21.95;;;34.20;80.80;;;;;;5051551;28;20025;-66
2022/04/02 09:58:40;;;;;;;66.85;42.35;;;34.20;81.40;;;;;;5048665;28;20024;-68
2022/04/02 10:01:20;;;;;;;25.33;18.60;;;34.10;82.20;;;;;;5051317;28;20025;-66
2022/04/02 10:03:53;;;;;;;30.55;19.98;;;34.00;81.30;;;;;;5053708;28;20479;-68
2022/04/02 10:06:25;;;;;;;34.22;24.63;;;34.00;83.40;;;;;;5047162;28;20512;-66
2022/04/02 10:08:51;;;;;;;;;;;33.90;81.80;;;;;;5055206;28;20021;-65
2022/04/02 10:11:24;;;;;;;26.60;21.65;;;33.80;81.80;;;;;;5056326;28;19912;-67
2022/04/02 10:13:54;;;;;;;30.63;21.67;;;33.80;82.10;;;;;;5056645;28;20099;-67
2022/04/02 10:16:25;;;;;;;32.05;21.83;;;33.80;82.70;;;;;;5056163;28;20029;-67
2022/04/02 10:18:54;;;;;;;28.07;21.40;;;33.80;82.90;;;;;;5057035;28;20017;-66
2022/04/02 10:21:22;;;;;;;30.02;20.25;;;33.80;83.40;;;;;;5055636;28;20113;-67
2022/04/02 10:23:55;;;;;;;28.80;21.15;;;33.90;82.30;;;;;;5056102;28;20028;-69
2022/04/02 10:26:23;;;;;;;37.63;22.23;;;33.90;82.90;;;;;;5055689;28;20039;-66
2022/04/02 10:28:54;;;;;;;27.00;19.95;;;33.90;82.00;;;;;;5056390;28;20459;-66
2022/04/02 10:31:33;;;;;;;41.63;26.42;;;33.80;82.30;;;;;;5056699;28;20430;-65
2022/04/02 10:34:12;;;;;;;48.28;29.77;;;33.80;82.60;;;;;;5056307;28;20055;-65
2022/04/02 10:36:51;;;;;;;35.58;21.60;;;33.80;82.50;;;;;;5056516;28;20028;-65
2022/04/02 10:39:22;;;;;;;44.72;23.48;;;33.70;83.30;;;;;;5056334;28;20029;-66
2022/04/02 10:41:55;;;;;;;38.03;24.20;;;33.80;83.50;;;;;;5056181;28;20023;-65
2022/04/02 10:44:33;;;;;;;40.05;24.13;;;33.80;83.70;;;;;;5056142;28;20104;-65
2022/04/02 10:47:03;;;;;;;51.78;27.23;;;33.70;83.70;;;;;;5056070;28;20028;-65
2022/04/02 10:49:35;;;;;;;116.18;32.15;;;33.60;83.80;;;;;;5056050;28;20067;-65
2022/04/02 10:52:03;;;;;;;72.72;31.73;;;33.60;83.10;;;;;;5051367;28;20104;-67
2022/04/02 10:54:30;;;;;;;84.97;37.90;;;33.60;82.90;;;;;;5048744;28;20025;-67
2022/04/02 10:56:57;;;;;;;110.35;42.45;;;33.60;83.10;;;;;;5054985;28;20036;-62
2022/04/02 10:59:30;;;;;;;59.38;38.38;;;33.60;83.00;;;;;;5054477;28;20108;-65
2022/04/02 11:02:00;;;;;;;58.47;39.22;;;33.40;82.30;;;;;;5055071;28;20031;-64
2022/04/02 11:04:32;;;;;;;55.13;35.33;;;33.30;82.50;;;;;;5054948;28;20040;-64
2022/04/02 11:06:59;;;;;;;;;;;33.30;82.30;;;;;;5053247;28;20040;-67
2022/04/02 11:09:29;;;;;;;84.15;50.17;;;33.10;81.60;;;;;;5054748;28;20348;-65
2022/04/02 11:12:03;;;;;;;95.55;62.25;;;33.00;84.40;;;;;;5054535;28;20021;-64
2022/04/02 11:14:39;;;;;;;74.95;50.17;;;32.90;88.20;;;;;;5054038;28;20427;-67
2022/04/02 11:17:06;;;;;;;54.30;34.60;;;32.70;90.00;;;;;;5040167;28;20474;-70
2022/04/02 11:22:52;;;;;;;64.68;38.60;;;32.50;90.90;;;;;;5051572;28;20040;-67
2022/04/02 11:25:29;;;;;;;55.38;32.10;;;32.40;91.00;;;;;;5052236;28;20033;-67
2022/04/02 11:28:16;;;;;;;60.60;36.05;;;32.30;91.40;;;;;;5051085;28;20081;-65
2022/04/02 11:30:46;;;;;;;60.10;34.47;;;32.20;91.60;;;;;;5052978;28;20029;-68
2022/04/02 11:33:24;;;;;;;44.65;29.02;;;32.10;91.80;;;;;;5045217;28;20048;-67
2022/04/02 11:35:55;;;;;;;50.65;31.52;;;32.00;92.10;;;;;;5044813;28;20034;-68
2022/04/02 11:38:24;;;;;;;78.82;48.78;;;31.90;92.40;;;;;;5054808;28;20035;-65
2022/04/02 11:40:58;;;;;;;65.75;41.92;;;31.90;92.50;;;;;;5054723;28;20071;-65
2022/04/02 11:43:35;;;;;;;48.17;32.95;;;31.70;93.00;;;;;;5051580;28;20503;-65
2022/04/02 11:46:06;;;;;;;70.20;40.17;;;31.60;93.60;;;;;;5051918;28;20430;-65
2022/04/02 11:48:36;;;;;;;73.43;44.17;;;31.60;93.60;;;;;;5055150;28;20029;-67
2022/04/02 11:51:17;;;;;;;63.70;40.83;;;31.60;93.70;;;;;;5051545;28;20067;-63
2022/04/02 11:53:45;;;;;;;85.05;54.28;;;31.60;93.70;;;;;;5052225;28;20368;-66
2022/04/02 11:56:21;;;;;;;98.15;68.15;;;31.60;93.70;;;;;;5053780;28;20040;-66
2022/04/02 11:58:50;;;;;;;45.63;29.23;;;31.60;93.80;;;;;;5051938;28;20031;-64
2022/04/02 12:01:22;;;;;;;78.88;51.75;;;31.50;93.90;;;;;;5054847;28;20051;-65
2022/04/02 12:04:09;;;;;;;55.55;34.03;;;31.50;94.40;;;;;;5052579;28;20048;-64
2022/04/02 12:06:36;;;;;;;78.38;46.10;;;31.40;94.40;;;;;;5052516;28;20059;-64
2022/04/02 12:09:18;;;;;;;50.72;38.88;;;31.60;94.70;;;;;;5053814;28;20044;-64
2022/04/02 12:11:56;;;;;;;57.92;37.33;;;31.40;94.30;;;;;;5052868;28;20041;-64
2022/04/02 12:14:42;;;;;;;47.25;29.60;;;31.40;94.20;;;;;;5053194;28;20056;-65
2022/04/02 12:17:14;;;;;;;70.25;37.88;;;31.30;94.50;;;;;;5053392;28;20380;-65
2022/04/02 12:19:40;;;;;;;50.88;30.98;;;31.30;94.60;;;;;;5053213;28;20029;-63
2022/04/02 12:22:19;;;;;;;63.70;35.00;;;31.30;95.30;;;;;;5049677;28;20068;-66
2022/04/02 12:24:49;;;;;;;63.95;35.28;;;31.40;95.10;;;;;;5052384;28;20025;-65
2022/04/02 12:27:22;;;;;;;53.22;29.95;;;31.50;95.40;;;;;;5050990;28;20438;-66
2022/04/02 12:29:51;;;;;;;38.00;25.55;;;31.50;94.50;;;;;;5051320;28;20116;-65
2022/04/02 12:32:33;;;;;;;56.30;30.17;;;31.30;94.80;;;;;;5052802;28;20028;-63
2022/04/02 12:35:05;;;;;;;49.35;26.73;;;31.30;94.80;;;;;;5051739;28;20036;-64
2022/04/02 12:37:40;;;;;;;;;;;31.20;95.00;;;;;;5050010;28;20036;-66
2022/04/02 12:40:21;;;;;;;37.28;23.38;;;31.20;95.00;;;;;;5052486;28;19909;-66
2022/04/02 12:43:06;;;;;;;34.30;21.25;;;31.10;95.30;;;;;;5052069;28;20029;-65
2022/04/02 12:45:35;;;;;;;29.45;19.35;;;31.20;95.30;;;;;;5052056;28;20128;-65
2022/04/02 12:48:02;;;;;;;30.23;20.23;;;31.20;95.30;;;;;;5052327;28;20455;-67
2022/04/02 12:50:32;;;;;;;31.02;21.88;;;31.20;95.40;;;;;;5049862;28;20036;-65
2022/04/02 12:52:59;;;;;;;36.13;23.23;;;31.20;95.80;;;;;;5050744;28;20021;-66
2022/04/02 12:55:28;;;;;;;31.10;20.60;;;31.00;95.40;;;;;;5051273;28;20020;-66